sensor_id;sensor_type;location;lat;lon;timestamp;pressure;altitude;pressure_sealevel;temperature;humidity
66742;BME280;53654;54.152;19.432;2023-12-29T00:01:17;100748.33;;;7.38;79.49
66742;BME280;53654;54.152;19.432;2023-12-29T00:03:46;100744.35;;;7.40;79.43
66742;BME280;53654;54.152;19.432;2023-12-29T00:06:14;100744.18;;;7.43;79.27
66742;BME280;53654;54.152;19.432;2023-12-29T00:08:42;100740.89;;;7.46;79.18
66742;BME280;53654;54.152;19.432;2023-12-29T00:11:20;100736.40;;;7.49;79.14
66742;BME280;53654;54.152;19.432;2023-12-29T00:13:48;100732.08;;;7.53;79.13
66742;BME280;53654;54.152;19.432;2023-12-29T00:16:16;100730.34;;;7.55;78.93
66742;BME280;53654;54.152;19.432;2023-12-29T00:18:44;100734.34;;;7.56;78.80
66742;BME280;53654;54.152;19.432;2023-12-29T00:21:13;100732.09;;;7.57;78.77
66742;BME280;53654;54.152;19.432;2023-12-29T00:23:44;100726.70;;;7.57;78.67
66742;BME280;53654;54.152;19.432;2023-12-29T00:26:12;100723.59;;;7.58;78.71
66742;BME280;53654;54.152;19.432;2023-12-29T00:28:40;100722.20;;;7.61;78.84
66742;BME280;53654;54.152;19.432;2023-12-29T00:31:09;100714.21;;;7.63;78.58
66742;BME280;53654;54.152;19.432;2023-12-29T00:33:37;100711.80;;;7.65;78.57
66742;BME280;53654;54.152;19.432;2023-12-29T00:36:06;100706.77;;;7.68;78.45
66742;BME280;53654;54.152;19.432;2023-12-29T00:38:34;100706.60;;;7.70;78.38
66742;BME280;53654;54.152;19.432;2023-12-29T00:41:02;100709.21;;;7.72;78.18
66742;BME280;53654;54.152;19.432;2023-12-29T00:43:32;100706.79;;;7.73;78.16
66742;BME280;53654;54.152;19.432;2023-12-29T00:46:10;100703.67;;;7.74;78.14
66742;BME280;53654;54.152;19.432;2023-12-29T00:48:39;100697.58;;;7.71;78.03
66742;BME280;53654;54.152;19.432;2023-12-29T00:51:08;100692.71;;;7.72;78.19
66742;BME280;53654;54.152;19.432;2023-12-29T00:53:37;100689.94;;;7.74;78.17
66742;BME280;53654;54.152;19.432;2023-12-29T00:56:12;100691.86;;;7.77;78.04
66742;BME280;53654;54.152;19.432;2023-12-29T00:58:41;100684.40;;;7.78;78.07
66742;BME280;53654;54.152;19.432;2023-12-29T01:01:09;100681.45;;;7.79;77.97
66742;BME280;53654;54.152;19.432;2023-12-29T01:03:39;100683.54;;;7.81;77.99
66742;BME280;53654;54.152;19.432;2023-12-29T01:06:08;100678.84;;;7.83;77.92
66742;BME280;53654;54.152;19.432;2023-12-29T01:08:36;100678.85;;;7.86;77.88
66742;BME280;53654;54.152;19.432;2023-12-29T01:11:04;100675.04;;;7.87;77.74
66742;BME280;53654;54.152;19.432;2023-12-29T01:13:32;100673.47;;;7.88;77.63
66742;BME280;53654;54.152;19.432;2023-12-29T01:16:00;100667.40;;;7.89;77.62
66742;BME280;53654;54.152;19.432;2023-12-29T01:18:29;100663.92;;;7.91;77.50
66742;BME280;53654;54.152;19.432;2023-12-29T01:20:57;100663.39;;;7.91;77.55
66742;BME280;53654;54.152;19.432;2023-12-29T01:23:25;100667.91;;;7.92;77.44
66742;BME280;53654;54.152;19.432;2023-12-29T01:25:53;100660.80;;;7.90;77.42
66742;BME280;53654;54.152;19.432;2023-12-29T01:28:22;100657.15;;;7.90;77.55
66742;BME280;53654;54.152;19.432;2023-12-29T01:30:50;100652.63;;;7.88;77.42
66742;BME280;53654;54.152;19.432;2023-12-29T01:33:18;100651.58;;;7.89;77.50
66742;BME280;53654;54.152;19.432;2023-12-29T01:35:50;100659.92;;;7.88;77.50
66742;BME280;53654;54.152;19.432;2023-12-29T01:38:18;100659.06;;;7.89;77.56
66742;BME280;53654;54.152;19.432;2023-12-29T01:40:47;100656.80;;;7.91;77.52
66742;BME280;53654;54.152;19.432;2023-12-29T01:43:15;100647.41;;;7.92;77.40
66742;BME280;53654;54.152;19.432;2023-12-29T01:45:43;100637.34;;;7.91;77.53
66742;BME280;53654;54.152;19.432;2023-12-29T01:48:24;100634.91;;;7.91;77.44
66742;BME280;53654;54.152;19.432;2023-12-29T01:50:54;100632.83;;;7.93;77.49
66742;BME280;53654;54.152;19.432;2023-12-29T01:53:22;100631.61;;;7.97;77.47
66742;BME280;53654;54.152;19.432;2023-12-29T01:56:06;100637.52;;;7.99;77.46
66742;BME280;53654;54.152;19.432;2023-12-29T01:58:36;100640.30;;;8.00;77.38
66742;BME280;53654;54.152;19.432;2023-12-29T02:01:06;100626.92;;;8.02;77.33
66742;BME280;53654;54.152;19.432;2023-12-29T02:03:36;100618.07;;;8.00;77.19
66742;BME280;53654;54.152;19.432;2023-12-29T02:06:06;100622.93;;;7.97;77.13
66742;BME280;53654;54.152;19.432;2023-12-29T02:08:34;100624.84;;;7.95;77.05
66742;BME280;53654;54.152;19.432;2023-12-29T02:11:04;100618.77;;;7.91;76.96
66742;BME280;53654;54.152;19.432;2023-12-29T02:13:32;100615.64;;;7.90;77.05
66742;BME280;53654;54.152;19.432;2023-12-29T02:16:07;100612.15;;;7.88;76.93
66742;BME280;53654;54.152;19.432;2023-12-29T02:18:37;100606.25;;;7.86;76.96
66742;BME280;53654;54.152;19.432;2023-12-29T02:21:06;100602.78;;;7.85;76.88
66742;BME280;53654;54.152;19.432;2023-12-29T02:23:34;100601.91;;;7.82;76.90
66742;BME280;53654;54.152;19.432;2023-12-29T02:26:07;100603.30;;;7.81;76.92
66742;BME280;53654;54.152;19.432;2023-12-29T02:28:40;100597.92;;;7.78;76.89
66742;BME280;53654;54.152;19.432;2023-12-29T02:31:17;100592.52;;;7.75;76.89
66742;BME280;53654;54.152;19.432;2023-12-29T02:33:49;100587.83;;;7.70;76.94
66742;BME280;53654;54.152;19.432;2023-12-29T02:36:21;100585.58;;;7.68;77.07
66742;BME280;53654;54.152;19.432;2023-12-29T02:38:50;100586.27;;;7.67;77.02
66742;BME280;53654;54.152;19.432;2023-12-29T02:41:18;100577.77;;;7.65;76.96
66742;BME280;53654;54.152;19.432;2023-12-29T02:43:46;100571.86;;;7.64;77.05
66742;BME280;53654;54.152;19.432;2023-12-29T02:46:15;100566.66;;;7.62;77.08
66742;BME280;53654;54.152;19.432;2023-12-29T02:48:43;100564.91;;;7.59;77.05
66742;BME280;53654;54.152;19.432;2023-12-29T02:51:12;100568.20;;;7.57;77.22
66742;BME280;53654;54.152;19.432;2023-12-29T02:53:40;100568.21;;;7.56;77.28
66742;BME280;53654;54.152;19.432;2023-12-29T02:56:09;100570.48;;;7.55;77.31
66742;BME280;53654;54.152;19.432;2023-12-29T02:58:37;100564.04;;;7.54;77.34
66742;BME280;53654;54.152;19.432;2023-12-29T03:01:05;100564.55;;;7.51;77.48
66742;BME280;53654;54.152;19.432;2023-12-29T03:03:34;100561.27;;;7.49;77.70
66742;BME280;53654;54.152;19.432;2023-12-29T03:06:03;100561.95;;;7.50;77.77
66742;BME280;53654;54.152;19.432;2023-12-29T03:08:31;100560.91;;;7.52;77.74
66742;BME280;53654;54.152;19.432;2023-12-29T03:11:00;100560.40;;;7.52;77.67
66742;BME280;53654;54.152;19.432;2023-12-29T03:13:28;100565.25;;;7.49;77.58
66742;BME280;53654;54.152;19.432;2023-12-29T03:15:57;100561.27;;;7.50;77.67
66742;BME280;53654;54.152;19.432;2023-12-29T03:18:26;100559.52;;;7.53;77.69
66742;BME280;53654;54.152;19.432;2023-12-29T03:20:54;100551.38;;;7.54;77.59
66742;BME280;53654;54.152;19.432;2023-12-29T03:23:22;100549.98;;;7.53;77.54
66742;BME280;53654;54.152;19.432;2023-12-29T03:25:51;100550.15;;;7.55;77.62
66742;BME280;53654;54.152;19.432;2023-12-29T03:28:19;100544.95;;;7.54;77.55
66742;BME280;53654;54.152;19.432;2023-12-29T03:30:47;100542.69;;;7.55;77.52
66742;BME280;53654;54.152;19.432;2023-12-29T03:33:16;100545.46;;;7.58;77.59
66742;BME280;53654;54.152;19.432;2023-12-29T03:35:44;100547.73;;;7.60;77.33
66742;BME280;53654;54.152;19.432;2023-12-29T03:38:13;100547.90;;;7.60;77.29
66742;BME280;53654;54.152;19.432;2023-12-29T03:40:42;100548.77;;;7.62;77.23
66742;BME280;53654;54.152;19.432;2023-12-29T03:43:11;100544.42;;;7.64;77.14
66742;BME280;53654;54.152;19.432;2023-12-29T03:45:39;100539.05;;;7.65;76.95
66742;BME280;53654;54.152;19.432;2023-12-29T03:48:07;100528.80;;;7.63;77.01
66742;BME280;53654;54.152;19.432;2023-12-29T03:50:37;100526.89;;;7.63;77.08
66742;BME280;53654;54.152;19.432;2023-12-29T03:53:06;100529.15;;;7.63;77.06
66742;BME280;53654;54.152;19.432;2023-12-29T03:55:34;100527.59;;;7.63;76.99
66742;BME280;53654;54.152;19.432;2023-12-29T03:58:02;100524.46;;;7.63;77.15
66742;BME280;53654;54.152;19.432;2023-12-29T04:00:31;100527.06;;;7.65;77.06
66742;BME280;53654;54.152;19.432;2023-12-29T04:02:59;100525.86;;;7.65;77.02
66742;BME280;53654;54.152;19.432;2023-12-29T04:05:28;100521.68;;;7.65;77.09
66742;BME280;53654;54.152;19.432;2023-12-29T04:07:56;100515.09;;;7.65;77.21
66742;BME280;53654;54.152;19.432;2023-12-29T04:10:25;100508.66;;;7.66;77.19
66742;BME280;53654;54.152;19.432;2023-12-29T04:12:53;100506.23;;;7.68;77.25
66742;BME280;53654;54.152;19.432;2023-12-29T04:15:21;100503.80;;;7.71;77.18
66742;BME280;53654;54.152;19.432;2023-12-29T04:17:49;100504.66;;;7.73;77.04
66742;BME280;53654;54.152;19.432;2023-12-29T04:20:17;100500.50;;;7.74;76.87
66742;BME280;53654;54.152;19.432;2023-12-29T04:22:46;100493.38;;;7.74;76.88
66742;BME280;53654;54.152;19.432;2023-12-29T04:25:14;100497.20;;;7.74;76.93
66742;BME280;53654;54.152;19.432;2023-12-29T04:27:42;100498.24;;;7.72;76.91
66742;BME280;53654;54.152;19.432;2023-12-29T04:30:10;100490.08;;;7.74;76.94
66742;BME280;53654;54.152;19.432;2023-12-29T04:32:39;100488.69;;;7.76;76.89
66742;BME280;53654;54.152;19.432;2023-12-29T04:35:07;100488.70;;;7.78;76.76
66742;BME280;53654;54.152;19.432;2023-12-29T04:37:38;100481.39;;;7.80;76.72
66742;BME280;53654;54.152;19.432;2023-12-29T04:40:07;100483.30;;;7.81;76.68
66742;BME280;53654;54.152;19.432;2023-12-29T04:42:35;100485.39;;;7.82;76.59
66742;BME280;53654;54.152;19.432;2023-12-29T04:45:04;100483.13;;;7.82;76.50
66742;BME280;53654;54.152;19.432;2023-12-29T04:47:33;100477.91;;;7.83;76.56
66742;BME280;53654;54.152;19.432;2023-12-29T04:50:01;100477.91;;;7.85;76.55
66742;BME280;53654;54.152;19.432;2023-12-29T04:52:30;100471.48;;;7.88;76.52
66742;BME280;53654;54.152;19.432;2023-12-29T04:54:58;100473.38;;;7.91;76.48
66742;BME280;53654;54.152;19.432;2023-12-29T04:57:26;100464.17;;;7.92;76.37
66742;BME280;53654;54.152;19.432;2023-12-29T04:59:54;100461.05;;;7.94;76.19
66742;BME280;53654;54.152;19.432;2023-12-29T05:02:23;100454.27;;;7.94;76.13
66742;BME280;53654;54.152;19.432;2023-12-29T05:04:51;100446.63;;;7.95;76.23
66742;BME280;53654;54.152;19.432;2023-12-29T05:07:19;100441.41;;;7.95;76.14
66742;BME280;53654;54.152;19.432;2023-12-29T05:09:47;100434.64;;;7.95;76.05
66742;BME280;53654;54.152;19.432;2023-12-29T05:12:15;100437.59;;;7.94;75.98
66742;BME280;53654;54.152;19.432;2023-12-29T05:14:43;100431.86;;;7.94;76.03
66742;BME280;53654;54.152;19.432;2023-12-29T05:17:12;100429.44;;;7.92;75.99
66742;BME280;53654;54.152;19.432;2023-12-29T05:19:40;100427.00;;;7.92;75.99
66742;BME280;53654;54.152;19.432;2023-12-29T05:22:08;100427.18;;;7.91;76.09
66742;BME280;53654;54.152;19.432;2023-12-29T05:24:37;100423.54;;;7.91;75.95
66742;BME280;53654;54.152;19.432;2023-12-29T05:27:05;100424.23;;;7.88;75.87
66742;BME280;53654;54.152;19.432;2023-12-29T05:29:33;100424.60;;;7.81;76.01
66742;BME280;53654;54.152;19.432;2023-12-29T05:32:02;100413.14;;;7.80;76.17
66742;BME280;53654;54.152;19.432;2023-12-29T05:34:30;100412.98;;;7.77;76.13
66742;BME280;53654;54.152;19.432;2023-12-29T05:36:59;100415.42;;;7.74;76.19
66742;BME280;53654;54.152;19.432;2023-12-29T05:39:27;100411.42;;;7.75;76.39
66742;BME280;53654;54.152;19.432;2023-12-29T05:41:55;100406.55;;;7.77;76.43
66742;BME280;53654;54.152;19.432;2023-12-29T05:44:23;100410.71;;;7.81;76.27
66742;BME280;53654;54.152;19.432;2023-12-29T05:46:51;100409.15;;;7.81;76.10
66742;BME280;53654;54.152;19.432;2023-12-29T05:49:24;100408.98;;;7.82;76.14
66742;BME280;53654;54.152;19.432;2023-12-29T05:51:52;100400.81;;;7.82;76.09
66742;BME280;53654;54.152;19.432;2023-12-29T05:54:20;100399.08;;;7.80;75.97
66742;BME280;53654;54.152;19.432;2023-12-29T05:56:49;100398.40;;;7.76;76.02
66742;BME280;53654;54.152;19.432;2023-12-29T05:59:17;100394.92;;;7.74;76.16
66742;BME280;53654;54.152;19.432;2023-12-29T06:01:45;100389.55;;;7.74;76.20
66742;BME280;53654;54.152;19.432;2023-12-29T06:04:14;100389.90;;;7.72;76.17
66742;BME280;53654;54.152;19.432;2023-12-29T06:06:42;100398.23;;;7.72;76.11
66742;BME280;53654;54.152;19.432;2023-12-29T06:09:10;100395.11;;;7.70;76.21
66742;BME280;53654;54.152;19.432;2023-12-29T06:11:38;100386.09;;;7.68;76.25
66742;BME280;53654;54.152;19.432;2023-12-29T06:14:07;100388.52;;;7.70;76.43
66742;BME280;53654;54.152;19.432;2023-12-29T06:16:35;100383.48;;;7.71;76.35
66742;BME280;53654;54.152;19.432;2023-12-29T06:19:03;100380.88;;;7.70;76.25
66742;BME280;53654;54.152;19.432;2023-12-29T06:21:31;100377.76;;;7.69;76.26
66742;BME280;53654;54.152;19.432;2023-12-29T06:24:00;100379.84;;;7.71;76.28
66742;BME280;53654;54.152;19.432;2023-12-29T06:26:28;100385.73;;;7.73;76.28
66742;BME280;53654;54.152;19.432;2023-12-29T06:28:56;100393.01;;;7.75;76.22
66742;BME280;53654;54.152;19.432;2023-12-29T06:31:24;100397.88;;;7.76;76.22
66742;BME280;53654;54.152;19.432;2023-12-29T06:33:52;100389.89;;;7.76;76.17
66742;BME280;53654;54.152;19.432;2023-12-29T06:36:21;100385.72;;;7.75;76.11
66742;BME280;53654;54.152;19.432;2023-12-29T06:38:49;100385.73;;;7.75;76.01
66742;BME280;53654;54.152;19.432;2023-12-29T06:41:18;100387.29;;;7.75;76.15
66742;BME280;53654;54.152;19.432;2023-12-29T06:43:46;100385.03;;;7.75;76.14
66742;BME280;53654;54.152;19.432;2023-12-29T06:46:15;100381.73;;;7.74;75.99
66742;BME280;53654;54.152;19.432;2023-12-29T06:48:43;100381.05;;;7.72;76.07
66742;BME280;53654;54.152;19.432;2023-12-29T06:51:16;100382.09;;;7.72;76.18
66742;BME280;53654;54.152;19.432;2023-12-29T06:53:46;100378.79;;;7.72;76.18
66742;BME280;53654;54.152;19.432;2023-12-29T06:56:16;100371.49;;;7.72;76.09
66742;BME280;53654;54.152;19.432;2023-12-29T06:58:45;100375.83;;;7.72;76.18
66742;BME280;53654;54.152;19.432;2023-12-29T07:01:14;100368.71;;;7.74;76.07
66742;BME280;53654;54.152;19.432;2023-12-29T07:03:44;100374.09;;;7.76;76.07
66742;BME280;53654;54.152;19.432;2023-12-29T07:06:13;100367.66;;;7.78;76.09
66742;BME280;53654;54.152;19.432;2023-12-29T07:08:41;100355.50;;;7.79;76.16
66742;BME280;53654;54.152;19.432;2023-12-29T07:11:10;100359.83;;;7.82;76.01
66742;BME280;53654;54.152;19.432;2023-12-29T07:13:39;100375.44;;;7.85;75.89
66742;BME280;53654;54.152;19.432;2023-12-29T07:16:07;100382.91;;;7.86;75.75
66742;BME280;53654;54.152;19.432;2023-12-29T07:18:36;100379.95;;;7.88;75.74
66742;BME280;53654;54.152;19.432;2023-12-29T07:21:04;100368.66;;;7.89;75.58
66742;BME280;53654;54.152;19.432;2023-12-29T07:23:32;100365.54;;;7.89;75.55
66742;BME280;53654;54.152;19.432;2023-12-29T07:26:00;100364.83;;;7.91;75.54
66742;BME280;53654;54.152;19.432;2023-12-29T07:28:28;100360.84;;;7.89;75.51
66742;BME280;53654;54.152;19.432;2023-12-29T07:30:57;100359.64;;;7.87;75.70
66742;BME280;53654;54.152;19.432;2023-12-29T07:33:25;100361.36;;;7.88;75.75
66742;BME280;53654;54.152;19.432;2023-12-29T07:35:54;100362.93;;;7.87;75.86
66742;BME280;53654;54.152;19.432;2023-12-29T07:38:22;100361.55;;;7.87;75.76
66742;BME280;53654;54.152;19.432;2023-12-29T07:40:50;100351.30;;;7.88;75.79
66742;BME280;53654;54.152;19.432;2023-12-29T07:43:19;100345.73;;;7.90;75.81
66742;BME280;53654;54.152;19.432;2023-12-29T07:45:47;100350.77;;;7.91;75.64
66742;BME280;53654;54.152;19.432;2023-12-29T07:48:15;100356.67;;;7.89;75.75
66742;BME280;53654;54.152;19.432;2023-12-29T07:50:43;100357.71;;;7.89;75.71
66742;BME280;53654;54.152;19.432;2023-12-29T07:53:11;100354.77;;;7.90;75.87
66742;BME280;53654;54.152;19.432;2023-12-29T07:55:39;100351.45;;;7.90;75.85
66742;BME280;53654;54.152;19.432;2023-12-29T07:58:08;100346.08;;;7.91;75.96
66742;BME280;53654;54.152;19.432;2023-12-29T08:00:38;100347.98;;;7.91;76.04
66742;BME280;53654;54.152;19.432;2023-12-29T08:03:06;100348.84;;;7.95;75.94
66742;BME280;53654;54.152;19.432;2023-12-29T08:05:35;100340.85;;;7.94;75.93
66742;BME280;53654;54.152;19.432;2023-12-29T08:08:03;100338.96;;;7.91;75.79
66742;BME280;53654;54.152;19.432;2023-12-29T08:10:32;100343.67;;;7.85;76.01
66742;BME280;53654;54.152;19.432;2023-12-29T08:13:00;100345.77;;;7.80;76.21
66742;BME280;53654;54.152;19.432;2023-12-29T08:15:28;100349.59;;;7.79;76.51
66742;BME280;53654;54.152;19.432;2023-12-29T08:17:56;100353.23;;;7.81;76.76
66742;BME280;53654;54.152;19.432;2023-12-29T08:20:25;100353.92;;;7.82;77.17
66742;BME280;53654;54.152;19.432;2023-12-29T08:22:54;100351.84;;;7.84;77.72
66742;BME280;53654;54.152;19.432;2023-12-29T08:25:22;100351.30;;;7.86;78.01
66742;BME280;53654;54.152;19.432;2023-12-29T08:27:50;100349.06;;;7.82;78.13
66742;BME280;53654;54.152;19.432;2023-12-29T08:30:18;100342.11;;;7.82;78.63
66742;BME280;53654;54.152;19.432;2023-12-29T08:32:47;100341.24;;;7.83;79.00
66742;BME280;53654;54.152;19.432;2023-12-29T08:35:15;100337.26;;;7.82;79.18
66742;BME280;53654;54.152;19.432;2023-12-29T08:37:43;100335.17;;;7.81;79.26
66742;BME280;53654;54.152;19.432;2023-12-29T08:40:12;100329.96;;;7.82;79.27
66742;BME280;53654;54.152;19.432;2023-12-29T08:42:40;100330.98;;;7.85;79.39
66742;BME280;53654;54.152;19.432;2023-12-29T08:45:08;100330.81;;;7.87;79.37
66742;BME280;53654;54.152;19.432;2023-12-29T08:47:37;100329.06;;;7.88;79.55
66742;BME280;53654;54.152;19.432;2023-12-29T08:50:06;100332.19;;;7.88;79.50
66742;BME280;53654;54.152;19.432;2023-12-29T08:52:34;100323.16;;;7.88;79.50
66742;BME280;53654;54.152;19.432;2023-12-29T08:55:03;100321.25;;;7.88;79.52
66742;BME280;53654;54.152;19.432;2023-12-29T08:57:31;100321.94;;;7.88;79.41
66742;BME280;53654;54.152;19.432;2023-12-29T08:59:59;100318.82;;;7.88;79.44
66742;BME280;53654;54.152;19.432;2023-12-29T09:02:28;100321.94;;;7.89;79.48
66742;BME280;53654;54.152;19.432;2023-12-29T09:04:56;100317.60;;;7.88;79.24
66742;BME280;53654;54.152;19.432;2023-12-29T09:07:24;100318.65;;;7.87;79.22
66742;BME280;53654;54.152;19.432;2023-12-29T09:09:53;100315.86;;;7.89;79.18
66742;BME280;53654;54.152;19.432;2023-12-29T09:12:21;100313.24;;;7.91;79.22
66742;BME280;53654;54.152;19.432;2023-12-29T09:14:49;100309.07;;;7.93;79.13
66742;BME280;53654;54.152;19.432;2023-12-29T09:17:17;100304.36;;;7.97;79.10
66742;BME280;53654;54.152;19.432;2023-12-29T09:19:45;100308.68;;;8.02;79.01
66742;BME280;53654;54.152;19.432;2023-12-29T09:22:23;100302.94;;;8.02;78.79
66742;BME280;53654;54.152;19.432;2023-12-29T09:24:51;100303.63;;;8.05;78.77
66742;BME280;53654;54.152;19.432;2023-12-29T09:27:20;100302.39;;;8.07;78.70
66742;BME280;53654;54.152;19.432;2023-12-29T09:29:49;100298.38;;;8.11;78.64
66742;BME280;53654;54.152;19.432;2023-12-29T09:32:18;100300.11;;;8.14;78.45
66742;BME280;53654;54.152;19.432;2023-12-29T09:34:46;100297.83;;;8.16;78.30
66742;BME280;53654;54.152;19.432;2023-12-29T09:37:14;100299.22;;;8.16;78.23
66742;BME280;53654;54.152;19.432;2023-12-29T09:39:42;100298.88;;;8.16;78.22
66742;BME280;53654;54.152;19.432;2023-12-29T09:42:20;100299.40;;;8.16;78.47
66742;BME280;53654;54.152;19.432;2023-12-29T09:44:50;100304.27;;;8.15;78.42
66742;BME280;53654;54.152;19.432;2023-12-29T09:47:22;100300.61;;;8.15;78.54
66742;BME280;53654;54.152;19.432;2023-12-29T09:49:53;100305.47;;;8.17;78.63
66742;BME280;53654;54.152;19.432;2023-12-29T09:52:23;100309.11;;;8.19;78.40
66742;BME280;53654;54.152;19.432;2023-12-29T09:54:52;100303.89;;;8.21;78.36
66742;BME280;53654;54.152;19.432;2023-12-29T09:57:21;100305.09;;;8.23;78.36
66742;BME280;53654;54.152;19.432;2023-12-29T09:59:49;100306.48;;;8.22;78.45
66742;BME280;53654;54.152;19.432;2023-12-29T10:02:21;100303.02;;;8.22;78.69
66742;BME280;53654;54.152;19.432;2023-12-29T10:04:52;100300.75;;;8.22;79.35
66742;BME280;53654;54.152;19.432;2023-12-29T10:07:24;100301.61;;;8.21;79.62
66742;BME280;53654;54.152;19.432;2023-12-29T10:09:56;100296.25;;;8.20;80.06
66742;BME280;53654;54.152;19.432;2023-12-29T10:12:25;100290.69;;;8.18;80.42
66742;BME280;53654;54.152;19.432;2023-12-29T10:15:04;100293.98;;;8.19;80.92
66742;BME280;53654;54.152;19.432;2023-12-29T10:20:38;100293.30;;;8.19;81.60
66742;BME280;53654;54.152;19.432;2023-12-29T10:23:13;100299.56;;;8.17;81.70
66742;BME280;53654;54.152;19.432;2023-12-29T10:25:44;100299.22;;;8.16;81.90
66742;BME280;53654;54.152;19.432;2023-12-29T10:28:16;100297.66;;;8.16;82.04
66742;BME280;53654;54.152;19.432;2023-12-29T10:30:47;100291.23;;;8.17;82.23
66742;BME280;53654;54.152;19.432;2023-12-29T10:33:21;100291.58;;;8.17;82.21
66742;BME280;53654;54.152;19.432;2023-12-29T10:36:01;100301.30;;;8.18;82.26
66742;BME280;53654;54.152;19.432;2023-12-29T10:38:39;100300.77;;;8.19;82.29
66742;BME280;53654;54.152;19.432;2023-12-29T10:41:19;100303.02;;;8.23;82.30
66742;BME280;53654;54.152;19.432;2023-12-29T10:43:47;100299.16;;;8.26;82.01
66742;BME280;53654;54.152;19.432;2023-12-29T10:46:20;100295.31;;;8.30;81.91
66742;BME280;53654;54.152;19.432;2023-12-29T10:48:49;100289.76;;;8.34;81.72
66742;BME280;53654;54.152;19.432;2023-12-29T10:51:26;100282.61;;;8.38;81.52
66742;BME280;53654;54.152;19.432;2023-12-29T10:53:56;100277.20;;;8.42;81.40
66742;BME280;53654;54.152;19.432;2023-12-29T10:56:28;100271.43;;;8.45;81.28
66742;BME280;53654;54.152;19.432;2023-12-29T10:59:03;100274.54;;;8.49;81.02
66742;BME280;53654;54.152;19.432;2023-12-29T11:01:33;100275.20;;;8.51;80.93
66742;BME280;53654;54.152;19.432;2023-12-29T11:04:06;100276.75;;;8.54;80.77
66742;BME280;53654;54.152;19.432;2023-12-29T11:06:42;100269.79;;;8.57;80.53
66742;BME280;53654;54.152;19.432;2023-12-29T11:09:13;100265.40;;;8.60;80.48
66742;BME280;53654;54.152;19.432;2023-12-29T11:11:42;100260.67;;;8.63;80.18
66742;BME280;53654;54.152;19.432;2023-12-29T11:14:11;100250.40;;;8.67;80.27
66742;BME280;53654;54.152;19.432;2023-12-29T11:16:41;100235.05;;;8.72;80.33
66742;BME280;53654;54.152;19.432;2023-12-29T11:19:11;100228.91;;;8.78;80.14
66742;BME280;53654;54.152;19.432;2023-12-29T11:21:42;100233.59;;;8.80;80.07
66742;BME280;53654;54.152;19.432;2023-12-29T11:24:11;100244.84;;;8.85;80.02
66742;BME280;53654;54.152;19.432;2023-12-29T11:26:43;100257.84;;;8.90;79.84
66742;BME280;53654;54.152;19.432;2023-12-29T11:29:12;100259.17;;;8.95;79.65
66742;BME280;53654;54.152;19.432;2023-12-29T11:31:40;100257.74;;;9.00;79.40
66742;BME280;53654;54.152;19.432;2023-12-29T11:34:26;100254.57;;;9.04;79.17
66742;BME280;53654;54.152;19.432;2023-12-29T11:37:18;100245.32;;;9.07;79.17
66742;BME280;53654;54.152;19.432;2023-12-29T11:40:09;100238.86;;;9.09;79.09
66742;BME280;53654;54.152;19.432;2023-12-29T11:42:41;100238.45;;;9.15;78.97
66742;BME280;53654;54.152;19.432;2023-12-29T11:45:29;100238.55;;;9.21;78.68
66742;BME280;53654;54.152;19.432;2023-12-29T11:48:03;100231.72;;;9.25;78.55
66742;BME280;53654;54.152;19.432;2023-12-29T11:50:36;100234.06;;;9.33;78.50
66742;BME280;53654;54.152;19.432;2023-12-29T11:53:06;100232.07;;;9.40;78.52
66742;BME280;53654;54.152;19.432;2023-12-29T11:55:37;100234.42;;;9.47;78.41
66742;BME280;53654;54.152;19.432;2023-12-29T11:58:26;100239.59;;;9.52;78.17
66742;BME280;53654;54.152;19.432;2023-12-29T12:00:57;100243.38;;;9.54;78.11
66742;BME280;53654;54.152;19.432;2023-12-29T12:03:27;100248.55;;;9.60;78.16
66742;BME280;53654;54.152;19.432;2023-12-29T12:05:56;100250.38;;;9.66;77.76
66742;BME280;53654;54.152;19.432;2023-12-29T12:08:34;100247.52;;;9.71;77.23
66742;BME280;53654;54.152;19.432;2023-12-29T12:13:57;100261.59;;;9.75;76.54
66742;BME280;53654;54.152;19.432;2023-12-29T12:19:13;100263.82;;;9.78;75.96
66742;BME280;53654;54.152;19.432;2023-12-29T12:21:45;100266.39;;;9.80;75.51
66742;BME280;53654;54.152;19.432;2023-12-29T12:24:18;100261.84;;;9.83;74.99
66742;BME280;53654;54.152;19.432;2023-12-29T12:26:47;100260.77;;;9.85;74.69
66742;BME280;53654;54.152;19.432;2023-12-29T12:29:17;100250.45;;;9.88;74.44
66742;BME280;53654;54.152;19.432;2023-12-29T12:31:57;100249.70;;;9.91;74.03
66742;BME280;53654;54.152;19.432;2023-12-29T12:34:25;100250.92;;;9.91;73.87
66742;BME280;53654;54.152;19.432;2023-12-29T12:36:54;100246.59;;;9.89;73.28
66742;BME280;53654;54.152;19.432;2023-12-29T12:39:40;100251.48;;;9.88;73.01
66742;BME280;53654;54.152;19.432;2023-12-29T12:42:09;100257.94;;;9.87;73.12
66742;BME280;53654;54.152;19.432;2023-12-29T12:44:42;100262.61;;;9.90;73.02
66742;BME280;53654;54.152;19.432;2023-12-29T12:47:15;100255.41;;;9.93;72.75
66742;BME280;53654;54.152;19.432;2023-12-29T12:49:46;100252.07;;;9.96;72.77
66742;BME280;53654;54.152;19.432;2023-12-29T12:52:15;100249.96;;;9.97;72.50
66742;BME280;53654;54.152;19.432;2023-12-29T12:54:44;100253.61;;;9.99;72.26
66742;BME280;53654;54.152;19.432;2023-12-29T12:57:13;100251.87;;;9.97;72.21
66742;BME280;53654;54.152;19.432;2023-12-29T12:59:41;100252.90;;;9.99;72.11
66742;BME280;53654;54.152;19.432;2023-12-29T13:02:10;100254.48;;;9.98;72.18
66742;BME280;53654;54.152;19.432;2023-12-29T13:04:41;100252.55;;;9.99;72.13
66742;BME280;53654;54.152;19.432;2023-12-29T13:07:10;100251.55;;;9.96;71.99
66742;BME280;53654;54.152;19.432;2023-12-29T13:09:38;100246.54;;;9.93;72.02
66742;BME280;53654;54.152;19.432;2023-12-29T13:12:14;100247.40;;;9.93;72.24